sensor_id;sensor_type;location;lat;lon;timestamp;P1;durP1;ratioP1;P2;durP2;ratioP2
19575;SDS011;41589;51.196;7.074;2023-05-16T00:04:04;2.40;;;2.30;;
19575;SDS011;41589;51.196;7.074;2023-05-16T00:09:11;2.90;;;2.70;;
19575;SDS011;41589;51.196;7.074;2023-05-16T00:14:21;3.70;;;3.40;;
19575;SDS011;41589;51.196;7.074;2023-05-16T00:19:21;2.80;;;2.60;;
19575;SDS011;41589;51.196;7.074;2023-05-16T00:24:22;2.73;;;2.33;;
19575;SDS011;41589;51.196;7.074;2023-05-16T00:29:23;3.13;;;2.93;;
19575;SDS011;41589;51.196;7.074;2023-05-16T00:34:27;2.80;;;2.70;;
19575;SDS011;41589;51.196;7.074;2023-05-16T00:39:28;2.60;;;2.50;;
19575;SDS011;41589;51.196;7.074;2023-05-16T00:44:30;2.23;;;2.13;;
19575;SDS011;41589;51.196;7.074;2023-05-16T00:49:30;2.20;;;2.10;;
19575;SDS011;41589;51.196;7.074;2023-05-16T00:54:31;1.70;;;1.60;;
19575;SDS011;41589;51.196;7.074;2023-05-16T00:59:40;1.50;;;1.50;;
19575;SDS011;41589;51.196;7.074;2023-05-16T01:04:53;1.70;;;1.60;;
19575;SDS011;41589;51.196;7.074;2023-05-16T01:09:56;1.80;;;1.70;;
19575;SDS011;41589;51.196;7.074;2023-05-16T01:15:01;1.87;;;1.77;;
19575;SDS011;41589;51.196;7.074;2023-05-16T01:20:25;1.53;;;1.53;;
19575;SDS011;41589;51.196;7.074;2023-05-16T01:30:43;1.30;;;1.20;;
19575;SDS011;41589;51.196;7.074;2023-05-16T01:41:08;1.57;;;1.47;;
19575;SDS011;41589;51.196;7.074;2023-05-16T01:46:25;1.07;;;1.07;;
19575;SDS011;41589;51.196;7.074;2023-05-16T01:51:31;1.00;;;1.00;;
19575;SDS011;41589;51.196;7.074;2023-05-16T01:56:34;1.00;;;1.00;;
19575;SDS011;41589;51.196;7.074;2023-05-16T02:01:41;0.97;;;0.97;;
19575;SDS011;41589;51.196;7.074;2023-05-16T02:06:41;1.23;;;1.17;;
19575;SDS011;41589;51.196;7.074;2023-05-16T02:11:42;1.00;;;1.00;;
19575;SDS011;41589;51.196;7.074;2023-05-16T02:16:42;1.00;;;1.00;;
19575;SDS011;41589;51.196;7.074;2023-05-16T02:21:43;1.63;;;1.53;;
19575;SDS011;41589;51.196;7.074;2023-05-16T02:26:47;1.40;;;1.40;;
19575;SDS011;41589;51.196;7.074;2023-05-16T02:31:51;1.50;;;1.40;;
19575;SDS011;41589;51.196;7.074;2023-05-16T02:36:52;2.00;;;1.90;;
19575;SDS011;41589;51.196;7.074;2023-05-16T02:41:55;2.60;;;2.00;;
19575;SDS011;41589;51.196;7.074;2023-05-16T02:46:59;2.30;;;1.70;;
19575;SDS011;41589;51.196;7.074;2023-05-16T02:51:59;3.23;;;2.10;;
19575;SDS011;41589;51.196;7.074;2023-05-16T02:57:00;2.47;;;2.20;;
19575;SDS011;41589;51.196;7.074;2023-05-16T03:02:00;2.30;;;2.10;;
19575;SDS011;41589;51.196;7.074;2023-05-16T03:07:04;3.00;;;2.27;;
19575;SDS011;41589;51.196;7.074;2023-05-16T03:12:04;3.63;;;2.37;;
19575;SDS011;41589;51.196;7.074;2023-05-16T03:17:05;2.83;;;2.10;;
19575;SDS011;41589;51.196;7.074;2023-05-16T03:22:05;3.07;;;2.80;;
19575;SDS011;41589;51.196;7.074;2023-05-16T03:27:06;4.50;;;3.00;;
19575;SDS011;41589;51.196;7.074;2023-05-16T03:32:10;2.63;;;2.37;;
19575;SDS011;41589;51.196;7.074;2023-05-16T03:37:11;3.13;;;2.77;;
19575;SDS011;41589;51.196;7.074;2023-05-16T03:42:13;4.30;;;2.90;;
19575;SDS011;41589;51.196;7.074;2023-05-16T03:47:14;2.70;;;2.50;;
19575;SDS011;41589;51.196;7.074;2023-05-16T03:52:15;3.80;;;2.60;;
19575;SDS011;41589;51.196;7.074;2023-05-16T03:57:48;3.37;;;2.70;;
19575;SDS011;41589;51.196;7.074;2023-05-16T04:02:50;3.47;;;2.77;;
19575;SDS011;41589;51.196;7.074;2023-05-16T04:07:50;3.47;;;2.07;;
19575;SDS011;41589;51.196;7.074;2023-05-16T04:12:51;3.60;;;2.13;;
19575;SDS011;41589;51.196;7.074;2023-05-16T04:18:00;3.07;;;2.00;;
19575;SDS011;41589;51.196;7.074;2023-05-16T04:23:06;3.33;;;2.23;;
19575;SDS011;41589;51.196;7.074;2023-05-16T04:28:13;2.17;;;1.80;;
19575;SDS011;41589;51.196;7.074;2023-05-16T04:33:18;3.17;;;1.90;;
19575;SDS011;41589;51.196;7.074;2023-05-16T04:38:21;2.57;;;1.80;;
19575;SDS011;41589;51.196;7.074;2023-05-16T04:43:27;2.10;;;1.90;;
19575;SDS011;41589;51.196;7.074;2023-05-16T04:48:31;2.80;;;2.10;;
19575;SDS011;41589;51.196;7.074;2023-05-16T04:53:33;2.57;;;1.93;;
19575;SDS011;41589;51.196;7.074;2023-05-16T04:58:37;2.30;;;2.00;;
19575;SDS011;41589;51.196;7.074;2023-05-16T05:03:38;2.47;;;2.20;;
19575;SDS011;41589;51.196;7.074;2023-05-16T05:08:39;3.07;;;2.33;;
19575;SDS011;41589;51.196;7.074;2023-05-16T05:13:40;3.10;;;2.63;;
19575;SDS011;41589;51.196;7.074;2023-05-16T05:18:40;2.70;;;2.27;;
19575;SDS011;41589;51.196;7.074;2023-05-16T05:23:48;2.20;;;2.00;;
19575;SDS011;41589;51.196;7.074;2023-05-16T05:28:48;4.37;;;2.40;;
19575;SDS011;41589;51.196;7.074;2023-05-16T05:33:51;2.43;;;1.80;;
19575;SDS011;41589;51.196;7.074;2023-05-16T05:38:52;3.73;;;2.13;;
19575;SDS011;41589;51.196;7.074;2023-05-16T05:43:52;2.73;;;1.90;;
19575;SDS011;41589;51.196;7.074;2023-05-16T05:48:52;3.40;;;2.00;;
19575;SDS011;41589;51.196;7.074;2023-05-16T05:53:53;3.73;;;2.30;;
19575;SDS011;41589;51.196;7.074;2023-05-16T05:58:53;3.70;;;2.20;;
19575;SDS011;41589;51.196;7.074;2023-05-16T06:03:56;2.97;;;1.70;;
19575;SDS011;41589;51.196;7.074;2023-05-16T06:08:57;2.40;;;1.70;;
19575;SDS011;41589;51.196;7.074;2023-05-16T06:13:57;3.43;;;1.87;;
19575;SDS011;41589;51.196;7.074;2023-05-16T06:18:58;2.23;;;1.70;;
19575;SDS011;41589;51.196;7.074;2023-05-16T06:23:58;4.77;;;2.33;;
19575;SDS011;41589;51.196;7.074;2023-05-16T06:28:59;3.83;;;1.80;;
19575;SDS011;41589;51.196;7.074;2023-05-16T06:33:59;2.37;;;1.60;;
19575;SDS011;41589;51.196;7.074;2023-05-16T06:39:00;1.73;;;1.30;;
19575;SDS011;41589;51.196;7.074;2023-05-16T06:44:00;2.37;;;1.50;;
19575;SDS011;41589;51.196;7.074;2023-05-16T06:49:00;1.40;;;1.30;;
19575;SDS011;41589;51.196;7.074;2023-05-16T06:54:01;2.47;;;1.87;;
19575;SDS011;41589;51.196;7.074;2023-05-16T06:59:01;2.07;;;1.50;;
19575;SDS011;41589;51.196;7.074;2023-05-16T07:04:02;2.67;;;1.50;;
19575;SDS011;41589;51.196;7.074;2023-05-16T07:09:04;1.80;;;1.60;;
19575;SDS011;41589;51.196;7.074;2023-05-16T07:14:04;2.70;;;1.67;;
19575;SDS011;41589;51.196;7.074;2023-05-16T07:19:05;2.33;;;1.50;;
19575;SDS011;41589;51.196;7.074;2023-05-16T07:24:05;1.30;;;1.20;;
19575;SDS011;41589;51.196;7.074;2023-05-16T07:29:06;1.80;;;1.40;;
19575;SDS011;41589;51.196;7.074;2023-05-16T07:34:06;1.57;;;1.20;;
19575;SDS011;41589;51.196;7.074;2023-05-16T07:39:09;1.40;;;1.30;;
19575;SDS011;41589;51.196;7.074;2023-05-16T07:44:09;2.77;;;1.60;;
19575;SDS011;41589;51.196;7.074;2023-05-16T07:49:10;1.33;;;1.23;;
19575;SDS011;41589;51.196;7.074;2023-05-16T07:54:10;1.63;;;1.37;;
19575;SDS011;41589;51.196;7.074;2023-05-16T07:59:10;2.67;;;1.53;;
19575;SDS011;41589;51.196;7.074;2023-05-16T08:04:11;1.20;;;1.10;;
19575;SDS011;41589;51.196;7.074;2023-05-16T08:09:11;1.73;;;1.10;;
19575;SDS011;41589;51.196;7.074;2023-05-16T08:14:12;2.93;;;1.73;;
19575;SDS011;41589;51.196;7.074;2023-05-16T08:19:12;1.43;;;1.23;;
19575;SDS011;41589;51.196;7.074;2023-05-16T08:24:13;1.33;;;1.10;;
19575;SDS011;41589;51.196;7.074;2023-05-16T08:29:13;0.80;;;0.80;;
19575;SDS011;41589;51.196;7.074;2023-05-16T08:34:13;1.17;;;1.00;;
19575;SDS011;41589;51.196;7.074;2023-05-16T08:39:13;1.20;;;1.10;;
19575;SDS011;41589;51.196;7.074;2023-05-16T08:44:14;4.87;;;2.13;;
19575;SDS011;41589;51.196;7.074;2023-05-16T08:49:20;1.80;;;1.13;;
19575;SDS011;41589;51.196;7.074;2023-05-16T08:54:23;1.33;;;0.90;;
19575;SDS011;41589;51.196;7.074;2023-05-16T08:59:23;1.30;;;1.20;;
19575;SDS011;41589;51.196;7.074;2023-05-16T09:04:24;1.60;;;1.10;;
19575;SDS011;41589;51.196;7.074;2023-05-16T09:09:26;1.13;;;0.90;;
19575;SDS011;41589;51.196;7.074;2023-05-16T09:14:26;1.00;;;1.00;;
19575;SDS011;41589;51.196;7.074;2023-05-16T09:19:31;1.27;;;1.10;;
19575;SDS011;41589;51.196;7.074;2023-05-16T09:24:39;2.37;;;1.43;;
19575;SDS011;41589;51.196;7.074;2023-05-16T09:29:41;1.07;;;0.90;;
19575;SDS011;41589;51.196;7.074;2023-05-16T09:34:47;1.17;;;0.97;;
19575;SDS011;41589;51.196;7.074;2023-05-16T09:39:50;1.00;;;0.97;;
19575;SDS011;41589;51.196;7.074;2023-05-16T09:44:53;0.97;;;0.80;;
19575;SDS011;41589;51.196;7.074;2023-05-16T09:50:04;2.83;;;1.20;;
19575;SDS011;41589;51.196;7.074;2023-05-16T09:55:06;1.33;;;0.97;;
19575;SDS011;41589;51.196;7.074;2023-05-16T10:00:10;1.20;;;1.00;;
19575;SDS011;41589;51.196;7.074;2023-05-16T10:05:12;1.50;;;0.90;;
19575;SDS011;41589;51.196;7.074;2023-05-16T10:10:12;2.00;;;1.10;;
19575;SDS011;41589;51.196;7.074;2023-05-16T10:15:13;0.80;;;0.80;;
19575;SDS011;41589;51.196;7.074;2023-05-16T10:20:15;0.90;;;0.90;;
19575;SDS011;41589;51.196;7.074;2023-05-16T10:25:18;1.40;;;0.90;;
19575;SDS011;41589;51.196;7.074;2023-05-16T10:30:27;1.07;;;0.93;;
19575;SDS011;41589;51.196;7.074;2023-05-16T10:35:29;1.27;;;0.83;;
19575;SDS011;41589;51.196;7.074;2023-05-16T10:40:30;0.80;;;0.80;;
19575;SDS011;41589;51.196;7.074;2023-05-16T10:45:31;1.83;;;1.10;;
19575;SDS011;41589;51.196;7.074;2023-05-16T10:50:32;1.30;;;0.97;;
19575;SDS011;41589;51.196;7.074;2023-05-16T10:55:43;1.10;;;1.00;;
19575;SDS011;41589;51.196;7.074;2023-05-16T11:01:20;0.80;;;0.80;;
19575;SDS011;41589;51.196;7.074;2023-05-16T11:06:27;1.07;;;0.80;;
19575;SDS011;41589;51.196;7.074;2023-05-16T11:11:45;1.23;;;0.90;;
19575;SDS011;41589;51.196;7.074;2023-05-16T11:27:32;1.03;;;0.93;;
19575;SDS011;41589;51.196;7.074;2023-05-16T11:32:37;1.10;;;1.00;;
19575;SDS011;41589;51.196;7.074;2023-05-16T11:37:39;1.17;;;1.00;;
19575;SDS011;41589;51.196;7.074;2023-05-16T11:42:43;1.13;;;1.03;;
19575;SDS011;41589;51.196;7.074;2023-05-16T11:47:46;1.10;;;1.00;;
19575;SDS011;41589;51.196;7.074;2023-05-16T11:52:47;0.90;;;0.90;;
19575;SDS011;41589;51.196;7.074;2023-05-16T11:57:52;0.80;;;0.80;;
19575;SDS011;41589;51.196;7.074;2023-05-16T12:02:54;1.40;;;1.30;;
19575;SDS011;41589;51.196;7.074;2023-05-16T12:08:00;1.00;;;1.00;;
19575;SDS011;41589;51.196;7.074;2023-05-16T12:13:01;1.87;;;1.00;;
19575;SDS011;41589;51.196;7.074;2023-05-16T12:18:02;0.97;;;0.80;;
19575;SDS011;41589;51.196;7.074;2023-05-16T12:23:03;1.37;;;1.10;;
19575;SDS011;41589;51.196;7.074;2023-05-16T12:28:04;1.03;;;0.80;;
19575;SDS011;41589;51.196;7.074;2023-05-16T12:33:07;1.60;;;0.80;;
19575;SDS011;41589;51.196;7.074;2023-05-16T12:38:10;0.70;;;0.70;;
19575;SDS011;41589;51.196;7.074;2023-05-16T12:43:15;1.33;;;1.00;;
19575;SDS011;41589;51.196;7.074;2023-05-16T12:48:18;1.57;;;0.90;;
19575;SDS011;41589;51.196;7.074;2023-05-16T12:53:18;0.73;;;0.73;;
19575;SDS011;41589;51.196;7.074;2023-05-16T12:58:24;1.53;;;0.70;;
19575;SDS011;41589;51.196;7.074;2023-05-16T13:03:25;0.97;;;0.80;;
19575;SDS011;41589;51.196;7.074;2023-05-16T13:08:26;0.70;;;0.70;;
19575;SDS011;41589;51.196;7.074;2023-05-16T13:13:27;2.27;;;0.70;;
19575;SDS011;41589;51.196;7.074;2023-05-16T13:18:28;0.60;;;0.60;;
19575;SDS011;41589;51.196;7.074;2023-05-16T13:23:28;0.60;;;0.60;;
19575;SDS011;41589;51.196;7.074;2023-05-16T13:28:29;0.73;;;0.63;;
19575;SDS011;41589;51.196;7.074;2023-05-16T13:33:29;0.70;;;0.70;;
19575;SDS011;41589;51.196;7.074;2023-05-16T13:38:32;0.93;;;0.93;;
19575;SDS011;41589;51.196;7.074;2023-05-16T13:43:33;0.70;;;0.70;;
19575;SDS011;41589;51.196;7.074;2023-05-16T13:48:33;0.77;;;0.73;;
19575;SDS011;41589;51.196;7.074;2023-05-16T13:53:34;0.73;;;0.73;;
19575;SDS011;41589;51.196;7.074;2023-05-16T13:58:34;0.73;;;0.73;;
19575;SDS011;41589;51.196;7.074;2023-05-16T14:03:35;0.63;;;0.60;;
19575;SDS011;41589;51.196;7.074;2023-05-16T14:08:35;0.70;;;0.70;;
19575;SDS011;41589;51.196;7.074;2023-05-16T14:13:36;0.90;;;0.70;;
19575;SDS011;41589;51.196;7.074;2023-05-16T14:18:37;0.80;;;0.80;;
19575;SDS011;41589;51.196;7.074;2023-05-16T14:23:38;1.33;;;0.83;;
19575;SDS011;41589;51.196;7.074;2023-05-16T14:28:48;0.80;;;0.80;;
19575;SDS011;41589;51.196;7.074;2023-05-16T14:33:49;0.87;;;0.87;;
19575;SDS011;41589;51.196;7.074;2023-05-16T14:38:53;0.80;;;0.80;;
19575;SDS011;41589;51.196;7.074;2023-05-16T14:43:56;0.80;;;0.80;;
19575;SDS011;41589;51.196;7.074;2023-05-16T14:49:06;1.03;;;0.93;;
19575;SDS011;41589;51.196;7.074;2023-05-16T14:54:12;1.63;;;0.80;;
19575;SDS011;41589;51.196;7.074;2023-05-16T14:59:13;1.10;;;1.00;;
19575;SDS011;41589;51.196;7.074;2023-05-16T15:04:14;1.00;;;0.90;;
19575;SDS011;41589;51.196;7.074;2023-05-16T15:09:14;0.90;;;0.90;;
19575;SDS011;41589;51.196;7.074;2023-05-16T15:14:18;1.27;;;1.10;;
19575;SDS011;41589;51.196;7.074;2023-05-16T15:19:21;1.13;;;1.00;;
19575;SDS011;41589;51.196;7.074;2023-05-16T15:24:24;1.73;;;1.30;;
19575;SDS011;41589;51.196;7.074;2023-05-16T15:29:27;0.93;;;0.90;;
19575;SDS011;41589;51.196;7.074;2023-05-16T15:34:27;0.83;;;0.83;;
19575;SDS011;41589;51.196;7.074;2023-05-16T15:39:28;0.87;;;0.83;;
19575;SDS011;41589;51.196;7.074;2023-05-16T15:44:28;0.80;;;0.80;;
19575;SDS011;41589;51.196;7.074;2023-05-16T15:49:34;1.17;;;0.93;;
19575;SDS011;41589;51.196;7.074;2023-05-16T15:54:38;1.00;;;0.90;;
19575;SDS011;41589;51.196;7.074;2023-05-16T15:59:39;1.23;;;0.90;;
19575;SDS011;41589;51.196;7.074;2023-05-16T16:04:40;3.13;;;1.83;;
19575;SDS011;41589;51.196;7.074;2023-05-16T16:09:43;1.70;;;1.00;;
19575;SDS011;41589;51.196;7.074;2023-05-16T16:14:45;1.63;;;1.27;;
19575;SDS011;41589;51.196;7.074;2023-05-16T16:19:48;0.93;;;0.90;;
19575;SDS011;41589;51.196;7.074;2023-05-16T16:24:48;1.10;;;1.00;;
19575;SDS011;41589;51.196;7.074;2023-05-16T16:29:49;1.10;;;1.00;;
19575;SDS011;41589;51.196;7.074;2023-05-16T16:34:50;1.87;;;1.20;;
19575;SDS011;41589;51.196;7.074;2023-05-16T16:39:51;1.47;;;1.03;;
19575;SDS011;41589;51.196;7.074;2023-05-16T16:44:52;1.00;;;1.00;;
19575;SDS011;41589;51.196;7.074;2023-05-16T16:49:55;1.20;;;1.10;;
19575;SDS011;41589;51.196;7.074;2023-05-16T16:54:56;1.07;;;1.07;;
19575;SDS011;41589;51.196;7.074;2023-05-16T16:59:57;1.20;;;1.10;;
19575;SDS011;41589;51.196;7.074;2023-05-16T17:04:58;1.03;;;0.93;;
19575;SDS011;41589;51.196;7.074;2023-05-16T17:09:59;1.30;;;1.17;;
19575;SDS011;41589;51.196;7.074;2023-05-16T17:15:00;1.90;;;1.10;;
19575;SDS011;41589;51.196;7.074;2023-05-16T17:20:05;1.00;;;1.00;;
19575;SDS011;41589;51.196;7.074;2023-05-16T17:25:11;0.90;;;0.90;;
19575;SDS011;41589;51.196;7.074;2023-05-16T17:30:15;1.07;;;0.97;;
19575;SDS011;41589;51.196;7.074;2023-05-16T17:35:16;1.00;;;1.00;;
19575;SDS011;41589;51.196;7.074;2023-05-16T17:40:17;1.10;;;1.10;;
19575;SDS011;41589;51.196;7.074;2023-05-16T17:45:20;1.00;;;1.00;;
19575;SDS011;41589;51.196;7.074;2023-05-16T17:50:21;1.17;;;1.07;;
19575;SDS011;41589;51.196;7.074;2023-05-16T17:55:22;1.10;;;1.00;;
19575;SDS011;41589;51.196;7.074;2023-05-16T18:00:23;1.23;;;1.13;;
19575;SDS011;41589;51.196;7.074;2023-05-16T18:05:24;1.30;;;1.20;;
19575;SDS011;41589;51.196;7.074;2023-05-16T18:10:24;1.40;;;1.30;;
19575;SDS011;41589;51.196;7.074;2023-05-16T18:15:29;1.10;;;1.00;;
19575;SDS011;41589;51.196;7.074;2023-05-16T18:20:30;1.03;;;1.03;;
19575;SDS011;41589;51.196;7.074;2023-05-16T18:25:30;1.20;;;1.10;;
19575;SDS011;41589;51.196;7.074;2023-05-16T18:30:33;1.27;;;1.20;;
19575;SDS011;41589;51.196;7.074;2023-05-16T18:35:34;1.00;;;1.00;;
19575;SDS011;41589;51.196;7.074;2023-05-16T18:40:34;1.27;;;1.07;;
19575;SDS011;41589;51.196;7.074;2023-05-16T18:45:35;1.37;;;1.20;;
19575;SDS011;41589;51.196;7.074;2023-05-16T18:50:39;1.30;;;1.20;;
19575;SDS011;41589;51.196;7.074;2023-05-16T18:55:42;1.27;;;1.10;;
19575;SDS011;41589;51.196;7.074;2023-05-16T19:00:43;1.60;;;1.00;;
19575;SDS011;41589;51.196;7.074;2023-05-16T19:05:43;1.03;;;1.00;;
19575;SDS011;41589;51.196;7.074;2023-05-16T19:10:44;1.13;;;1.07;;
19575;SDS011;41589;51.196;7.074;2023-05-16T19:16:00;1.40;;;1.03;;
19575;SDS011;41589;51.196;7.074;2023-05-16T19:21:06;1.70;;;1.27;;
19575;SDS011;41589;51.196;7.074;2023-05-16T19:26:10;1.30;;;1.20;;
19575;SDS011;41589;51.196;7.074;2023-05-16T19:31:11;1.30;;;1.30;;
19575;SDS011;41589;51.196;7.074;2023-05-16T19:36:15;1.00;;;1.00;;
19575;SDS011;41589;51.196;7.074;2023-05-16T19:41:16;2.47;;;1.00;;
19575;SDS011;41589;51.196;7.074;2023-05-16T19:46:20;1.53;;;1.00;;
19575;SDS011;41589;51.196;7.074;2023-05-16T19:51:23;1.00;;;1.00;;
19575;SDS011;41589;51.196;7.074;2023-05-16T19:56:27;1.10;;;1.00;;
19575;SDS011;41589;51.196;7.074;2023-05-16T20:01:35;1.17;;;1.07;;
19575;SDS011;41589;51.196;7.074;2023-05-16T20:06:35;1.17;;;1.10;;
19575;SDS011;41589;51.196;7.074;2023-05-16T20:11:40;0.93;;;0.93;;
19575;SDS011;41589;51.196;7.074;2023-05-16T20:16:44;1.10;;;1.10;;
19575;SDS011;41589;51.196;7.074;2023-05-16T20:21:44;1.23;;;1.13;;
19575;SDS011;41589;51.196;7.074;2023-05-16T20:33:16;1.10;;;1.10;;
19575;SDS011;41589;51.196;7.074;2023-05-16T20:38:31;2.03;;;1.27;;
19575;SDS011;41589;51.196;7.074;2023-05-16T20:43:39;1.17;;;1.07;;
19575;SDS011;41589;51.196;7.074;2023-05-16T20:48:50;1.50;;;1.10;;
19575;SDS011;41589;51.196;7.074;2023-05-16T20:54:10;1.40;;;1.30;;
19575;SDS011;41589;51.196;7.074;2023-05-16T20:59:13;1.50;;;1.40;;
19575;SDS011;41589;51.196;7.074;2023-05-16T21:04:26;1.10;;;1.00;;
19575;SDS011;41589;51.196;7.074;2023-05-16T21:09:29;1.13;;;1.13;;
19575;SDS011;41589;51.196;7.074;2023-05-16T21:14:36;2.07;;;1.50;;
19575;SDS011;41589;51.196;7.074;2023-05-16T21:20:03;1.10;;;1.10;;
19575;SDS011;41589;51.196;7.074;2023-05-16T21:25:29;1.33;;;1.20;;
19575;SDS011;41589;51.196;7.074;2023-05-16T21:30:30;1.97;;;1.37;;
19575;SDS011;41589;51.196;7.074;2023-05-16T21:35:34;1.30;;;1.20;;
19575;SDS011;41589;51.196;7.074;2023-05-16T21:40:44;2.20;;;1.30;;
19575;SDS011;41589;51.196;7.074;2023-05-16T21:45:55;2.13;;;1.77;;
19575;SDS011;41589;51.196;7.074;2023-05-16T21:51:06;1.50;;;1.40;;
19575;SDS011;41589;51.196;7.074;2023-05-16T21:56:07;1.40;;;1.30;;
19575;SDS011;41589;51.196;7.074;2023-05-16T22:01:15;1.57;;;1.37;;
19575;SDS011;41589;51.196;7.074;2023-05-16T22:06:26;1.90;;;1.63;;
19575;SDS011;41589;51.196;7.074;2023-05-16T22:11:33;1.13;;;1.10;;
19575;SDS011;41589;51.196;7.074;2023-05-16T22:16:33;1.07;;;1.03;;
19575;SDS011;41589;51.196;7.074;2023-05-16T22:21:40;2.57;;;2.47;;
19575;SDS011;41589;51.196;7.074;2023-05-16T22:26:40;1.50;;;1.40;;
19575;SDS011;41589;51.196;7.074;2023-05-16T22:31:41;1.40;;;1.30;;
19575;SDS011;41589;51.196;7.074;2023-05-16T22:36:47;2.07;;;1.40;;
19575;SDS011;41589;51.196;7.074;2023-05-16T22:41:53;1.37;;;1.27;;
19575;SDS011;41589;51.196;7.074;2023-05-16T22:47:05;1.30;;;1.30;;
19575;SDS011;41589;51.196;7.074;2023-05-16T22:52:13;1.33;;;1.23;;
19575;SDS011;41589;51.196;7.074;2023-05-16T22:57:16;2.30;;;1.40;;
19575;SDS011;41589;51.196;7.074;2023-05-16T23:02:17;1.93;;;1.80;;
19575;SDS011;41589;51.196;7.074;2023-05-16T23:07:18;1.47;;;1.30;;
19575;SDS011;41589;51.196;7.074;2023-05-16T23:12:19;1.57;;;1.33;;
19575;SDS011;41589;51.196;7.074;2023-05-16T23:17:20;1.47;;;1.27;;
19575;SDS011;41589;51.196;7.074;2023-05-16T23:22:24;1.30;;;1.30;;
19575;SDS011;41589;51.196;7.074;2023-05-16T23:27:45;1.37;;;1.27;;
19575;SDS011;41589;51.196;7.074;2023-05-16T23:32:59;1.70;;;1.60;;
19575;SDS011;41589;51.196;7.074;2023-05-16T23:38:03;1.50;;;1.40;;
19575;SDS011;41589;51.196;7.074;2023-05-16T23:43:06;1.53;;;1.40;;
19575;SDS011;41589;51.196;7.074;2023-05-16T23:48:09;1.40;;;1.30;;
19575;SDS011;41589;51.196;7.074;2023-05-16T23:53:10;1.60;;;1.50;;
19575;SDS011;41589;51.196;7.074;2023-05-16T23:58:10;1.57;;;1.30;;
